Voyager Of The Seas — C6SE5 — position and weather

sailwx.info

Track history (hours):
 
Tides and Currents Weather Stations Pressure Air Temp Water Temp Dewpoint Dewpoint Depression Visibility Wind Speed Wind Dir Waves Ship Positions

Voyager Of The Seas

Operator: Royal Caribbean Cruises Ltd

Last reported at 2014-Aug-28 20:32 UTC. Time now 2014-Aug-30 14:34 UTC.
Position N 38°14' E 121°37'.

Type: Passenger vessel. MMSI: 311317000.

Date/timePositionNaut miles runAvg speedWind from/ knotsBaromVisibWave heightAir tempDewpointWater temp
2014-Aug-28 20:32N 38°14' E 121°37'1919.3
2014-Aug-28 19:33N 38°24' E 121°16'14117.6
2014-Aug-28 11:33N 38°50' E 118°19'1312.8
2014-Aug-28 10:33N 38°55' E 118°04'1111.5
2014-Aug-28 09:33N 38°58' E 117°50'1 0.8
2014-Aug-28 08:32N 38°59' E 117°49'0 0.0
2014-Aug-28 07:32N 38°59' E 117°49'0 0.0
2014-Aug-28 06:32N 38°59' E 117°49'0 0.0
2014-Aug-28 05:32N 38°59' E 117°49'0 0.0
2014-Aug-28 04:32N 38°59' E 117°49'0 0.0
2014-Aug-28 03:32N 38°59' E 117°49'0 0.0
2014-Aug-28 02:23N 38°59' E 117°49'0 0.0
2014-Aug-28 01:32N 38°59' E 117°49'0 0.0
2014-Aug-28 00:32N 38°59' E 117°49'0 0.0
2014-Aug-27 23:32N 38°59' E 117°49'0 0.1
2014-Aug-27 22:34N 38°58' E 117°49'1111.4
2014-Aug-27 21:34N 38°56' E 118°03'7 6.8
2014-Aug-27 20:33N 38°53' E 118°11'1313.3
2014-Aug-27 19:33N 38°51' E 118°28'4313.3
2014-Aug-27 16:19N 38°46' E 119°23'1012.2
2014-Aug-27 15:30N 38°45' E 119°36'3511.6
2014-Aug-27 12:26N 38°40' E 120°21'1011.5
2014-Aug-27 11:33N 38°39' E 120°33'1111.1
2014-Aug-27 10:33N 38°37' E 120°48'1110.4
2014-Aug-27 09:28N 38°33' E 121°01'1010.9
2014-Aug-27 08:32N 38°28' E 121°13'1210.7
2014-Aug-27 07:27N 38°23' E 121°26'1011.1
2014-Aug-27 06:33N 38°18' E 121°37'2216.2
2014-Aug-27 05:10N 38°09' E 122°03'4 4.2
2014-Aug-27 04:14N 38°07' E 122°07'811.6
2014-Aug-27 03:33N 38°04' E 122°16'1211.6
2014-Aug-27 02:31N 37°58' E 122°30'1211.8
2014-Aug-27 01:28N 37°53' E 122°44'  
2014-Aug-22 22:33N 37°49' E 122°39'1918.8
2014-Aug-22 21:33N 37°58' E 122°18'1919.1
2014-Aug-22 20:33N 38°06' E 121°56'2019.8
2014-Aug-22 19:33N 38°14' E 121°33'2120.1
2014-Aug-22 18:32N 38°25' E 121°11'3617.8
2014-Aug-22 16:31N 38°36' E 120°28'8817.8
2014-Aug-22 11:33N 38°49' E 118°35'1817.8
2014-Aug-22 10:33N 38°51' E 118°13'1515.4
2014-Aug-22 09:33N 38°57' E 117°55'5 4.4
2014-Aug-22 08:32N 38°59' E 117°49'0 0.0
2014-Aug-22 07:31N 38°59' E 117°49'0 0.0
2014-Aug-22 06:28N 38°59' E 117°49'0 0.0
2014-Aug-22 05:31N 38°59' E 117°49'0 0.0
2014-Aug-22 04:31N 38°59' E 117°49'0 0.0
2014-Aug-22 03:31N 38°59' E 117°49'0 0.0
2014-Aug-22 02:31N 38°59' E 117°49'0 0.0
2014-Aug-22 01:31N 38°59' E 117°49'0 0.0
2014-Aug-22 00:31N 38°59' E 117°49'0 0.0
2014-Aug-21 23:31N 38°59' E 117°49'0 0.0
2014-Aug-21 22:31N 38°59' E 117°49'1010.1
2014-Aug-21 21:33N 38°56' E 118°01'15914.5
2014-Aug-21 10:33N 38°26' E 121°22'1813.5
2014-Aug-21 09:11N 38°16' E 121°41'2513.8
2014-Aug-21 07:23N 38°03' E 122°09'1213.6
2014-Aug-21 06:33N 37°58' E 122°22'1413.6
2014-Aug-21 05:33N 37°51' E 122°36'1313.5
2014-Aug-21 04:33N 37°44' E 122°51'1313.0
2014-Aug-21 03:33N 37°35' E 123°02'  
Track history (hours):
 
Tides and Currents Weather Stations Pressure Air Temp Water Temp Dewpoint Dewpoint Depression Visibility Wind Speed Wind Dir Waves Ship Positions

Voyager Of The Seas

Operator: Royal Caribbean Cruises Ltd

Last reported at 2014-Aug-28 20:32 UTC. Time now 2014-Aug-30 14:34 UTC.
Position N 38°14' E 121°37'.

Type: Passenger vessel. MMSI: 311317000.

Date/timePositionNaut miles runAvg speedWind from/ knotsBaromVisibWave heightAir tempDewpointWater temp
2014-Aug-28 20:32N 38°14' E 121°37'1919.3
2014-Aug-28 19:33N 38°24' E 121°16'14117.6
2014-Aug-28 11:33N 38°50' E 118°19'1312.8
2014-Aug-28 10:33N 38°55' E 118°04'1111.5
2014-Aug-28 09:33N 38°58' E 117°50'1 0.8
2014-Aug-28 08:32N 38°59' E 117°49'0 0.0
2014-Aug-28 07:32N 38°59' E 117°49'0 0.0
2014-Aug-28 06:32N 38°59' E 117°49'0 0.0
2014-Aug-28 05:32N 38°59' E 117°49'0 0.0
2014-Aug-28 04:32N 38°59' E 117°49'0 0.0
2014-Aug-28 03:32N 38°59' E 117°49'0 0.0
2014-Aug-28 02:23N 38°59' E 117°49'0 0.0
2014-Aug-28 01:32N 38°59' E 117°49'0 0.0
2014-Aug-28 00:32N 38°59' E 117°49'0 0.0
2014-Aug-27 23:32N 38°59' E 117°49'0 0.1
2014-Aug-27 22:34N 38°58' E 117°49'1111.4
2014-Aug-27 21:34N 38°56' E 118°03'7 6.8
2014-Aug-27 20:33N 38°53' E 118°11'1313.3
2014-Aug-27 19:33N 38°51' E 118°28'4313.3
2014-Aug-27 16:19N 38°46' E 119°23'1012.2
2014-Aug-27 15:30N 38°45' E 119°36'3511.6
2014-Aug-27 12:26N 38°40' E 120°21'1011.5
2014-Aug-27 11:33N 38°39' E 120°33'1111.1
2014-Aug-27 10:33N 38°37' E 120°48'1110.4
2014-Aug-27 09:28N 38°33' E 121°01'1010.9
2014-Aug-27 08:32N 38°28' E 121°13'1210.7
2014-Aug-27 07:27N 38°23' E 121°26'1011.1
2014-Aug-27 06:33N 38°18' E 121°37'2216.2
2014-Aug-27 05:10N 38°09' E 122°03'4 4.2
2014-Aug-27 04:14N 38°07' E 122°07'811.6
2014-Aug-27 03:33N 38°04' E 122°16'1211.6
2014-Aug-27 02:31N 37°58' E 122°30'1211.8
2014-Aug-27 01:28N 37°53' E 122°44'  
2014-Aug-22 22:33N 37°49' E 122°39'1918.8
2014-Aug-22 21:33N 37°58' E 122°18'1919.1
2014-Aug-22 20:33N 38°06' E 121°56'2019.8
2014-Aug-22 19:33N 38°14' E 121°33'2120.1
2014-Aug-22 18:32N 38°25' E 121°11'3617.8
2014-Aug-22 16:31N 38°36' E 120°28'8817.8
2014-Aug-22 11:33N 38°49' E 118°35'1817.8
2014-Aug-22 10:33N 38°51' E 118°13'1515.4
2014-Aug-22 09:33N 38°57' E 117°55'5 4.4
2014-Aug-22 08:32N 38°59' E 117°49'0 0.0
2014-Aug-22 07:31N 38°59' E 117°49'0 0.0
2014-Aug-22 06:28N 38°59' E 117°49'0 0.0
2014-Aug-22 05:31N 38°59' E 117°49'0 0.0
2014-Aug-22 04:31N 38°59' E 117°49'0 0.0
2014-Aug-22 03:31N 38°59' E 117°49'0 0.0
2014-Aug-22 02:31N 38°59' E 117°49'0 0.0
2014-Aug-22 01:31N 38°59' E 117°49'0 0.0
2014-Aug-22 00:31N 38°59' E 117°49'0 0.0
2014-Aug-21 23:31N 38°59' E 117°49'0 0.0
2014-Aug-21 22:31N 38°59' E 117°49'1010.1
2014-Aug-21 21:33N 38°56' E 118°01'15914.5
2014-Aug-21 10:33N 38°26' E 121°22'1813.5
2014-Aug-21 09:11N 38°16' E 121°41'2513.8
2014-Aug-21 07:23N 38°03' E 122°09'1213.6
2014-Aug-21 06:33N 37°58' E 122°22'1413.6
2014-Aug-21 05:33N 37°51' E 122°36'1313.5
2014-Aug-21 04:33N 37°44' E 122°51'1313.0
2014-Aug-21 03:33N 37°35' E 123°02'  

Dump ship's entire track history